sensor_id;sensor_type;location;lat;lon;timestamp;pressure;altitude;pressure_sealevel;temperature;humidity
75656;BME280;64252;51.094;13.714;2024-03-22T00:00:32;100951.78;;;18.07;44.44
75656;BME280;64252;51.094;13.714;2024-03-22T00:02:58;100956.97;;;18.16;44.82
75656;BME280;64252;51.094;13.714;2024-03-22T00:05:23;100959.63;;;17.62;45.82
75656;BME280;64252;51.094;13.714;2024-03-22T00:07:49;100959.22;;;17.56;46.40
75656;BME280;64252;51.094;13.714;2024-03-22T00:10:15;100954.88;;;17.45;46.27
75656;BME280;64252;51.094;13.714;2024-03-22T00:12:41;100966.25;;;17.93;45.35
75656;BME280;64252;51.094;13.714;2024-03-22T00:15:07;100954.75;;;18.30;44.52
75656;BME280;64252;51.094;13.714;2024-03-22T00:17:32;100952.38;;;18.25;44.53
75656;BME280;64252;51.094;13.714;2024-03-22T00:19:59;100957.78;;;17.82;45.64
75656;BME280;64252;51.094;13.714;2024-03-22T00:22:25;100954.53;;;17.80;45.27
75656;BME280;64252;51.094;13.714;2024-03-22T00:24:50;100956.38;;;18.31;44.73
75656;BME280;64252;51.094;13.714;2024-03-22T00:27:16;100961.91;;;17.78;46.15
75656;BME280;64252;51.094;13.714;2024-03-22T00:29:41;100947.06;;;18.58;43.98
75656;BME280;64252;51.094;13.714;2024-03-22T00:32:07;100944.06;;;17.70;45.55
75656;BME280;64252;51.094;13.714;2024-03-22T00:34:34;100941.75;;;18.26;44.56
75656;BME280;64252;51.094;13.714;2024-03-22T00:37:00;100930.72;;;18.58;43.82
75656;BME280;64252;51.094;13.714;2024-03-22T00:39:25;100936.38;;;18.62;43.59
75656;BME280;64252;51.094;13.714;2024-03-22T00:41:51;100927.19;;;18.13;44.42
75656;BME280;64252;51.094;13.714;2024-03-22T00:44:16;100933.19;;;18.56;44.00
75656;BME280;64252;51.094;13.714;2024-03-22T00:46:42;100930.72;;;18.24;44.29
75656;BME280;64252;51.094;13.714;2024-03-22T00:49:07;100922.41;;;18.67;43.36
75656;BME280;64252;51.094;13.714;2024-03-22T00:51:33;100923.97;;;18.72;43.42
75656;BME280;64252;51.094;13.714;2024-03-22T00:53:58;100931.78;;;18.37;43.93
75656;BME280;64252;51.094;13.714;2024-03-22T00:56:24;100929.44;;;18.29;44.28
75656;BME280;64252;51.094;13.714;2024-03-22T00:58:49;100928.72;;;18.52;43.74
75656;BME280;64252;51.094;13.714;2024-03-22T01:01:14;100919.50;;;18.40;44.05
75656;BME280;64252;51.094;13.714;2024-03-22T01:03:40;100929.50;;;18.25;44.12
75656;BME280;64252;51.094;13.714;2024-03-22T01:06:06;100914.47;;;18.48;43.68
75656;BME280;64252;51.094;13.714;2024-03-22T01:08:32;100916.09;;;18.49;43.86
75656;BME280;64252;51.094;13.714;2024-03-22T01:10:58;100917.47;;;18.95;42.74
75656;BME280;64252;51.094;13.714;2024-03-22T01:13:23;100909.44;;;18.86;42.85
75656;BME280;64252;51.094;13.714;2024-03-22T01:15:49;100911.75;;;18.68;43.10
75656;BME280;64252;51.094;13.714;2024-03-22T01:18:14;100904.44;;;18.90;42.65
75656;BME280;64252;51.094;13.714;2024-03-22T01:20:40;100900.78;;;18.36;43.82
75656;BME280;64252;51.094;13.714;2024-03-22T01:23:07;100891.59;;;18.75;43.03
75656;BME280;64252;51.094;13.714;2024-03-22T01:25:33;100893.50;;;18.85;42.58
75656;BME280;64252;51.094;13.714;2024-03-22T01:27:58;100885.03;;;18.78;43.04
75656;BME280;64252;51.094;13.714;2024-03-22T01:30:24;100879.69;;;18.80;43.14
75656;BME280;64252;51.094;13.714;2024-03-22T01:32:53;100880.63;;;18.16;44.37
75656;BME280;64252;51.094;13.714;2024-03-22T01:35:19;100884.22;;;17.90;44.96
75656;BME280;64252;51.094;13.714;2024-03-22T01:37:44;100882.13;;;18.24;44.47
75656;BME280;64252;51.094;13.714;2024-03-22T01:40:10;100885.19;;;18.40;44.19
75656;BME280;64252;51.094;13.714;2024-03-22T01:42:36;100882.13;;;18.55;43.44
75656;BME280;64252;51.094;13.714;2024-03-22T01:45:02;100875.13;;;18.59;43.40
75656;BME280;64252;51.094;13.714;2024-03-22T01:47:28;100880.34;;;18.64;43.44
75656;BME280;64252;51.094;13.714;2024-03-22T01:49:54;100872.69;;;18.58;43.83
75656;BME280;64252;51.094;13.714;2024-03-22T01:52:20;100870.50;;;18.65;43.28
75656;BME280;64252;51.094;13.714;2024-03-22T01:54:46;100866.84;;;18.65;43.37
75656;BME280;64252;51.094;13.714;2024-03-22T01:57:11;100866.66;;;18.22;44.34
75656;BME280;64252;51.094;13.714;2024-03-22T01:59:37;100859.56;;;18.60;43.62
75656;BME280;64252;51.094;13.714;2024-03-22T02:02:04;100846.25;;;18.47;43.64
75656;BME280;64252;51.094;13.714;2024-03-22T02:04:29;100850.56;;;18.62;43.61
75656;BME280;64252;51.094;13.714;2024-03-22T02:06:55;100852.53;;;18.38;44.25
75656;BME280;64252;51.094;13.714;2024-03-22T02:09:21;100848.31;;;18.46;44.13
75656;BME280;64252;51.094;13.714;2024-03-22T02:11:47;100846.00;;;18.37;44.33
75656;BME280;64252;51.094;13.714;2024-03-22T02:14:13;100837.09;;;18.32;44.52
75656;BME280;64252;51.094;13.714;2024-03-22T02:16:42;100841.03;;;18.41;43.91
75656;BME280;64252;51.094;13.714;2024-03-22T02:19:08;100836.59;;;18.10;45.14
75656;BME280;64252;51.094;13.714;2024-03-22T02:21:34;100827.94;;;17.87;45.34
75656;BME280;64252;51.094;13.714;2024-03-22T02:24:00;100821.47;;;17.83;45.53
75656;BME280;64252;51.094;13.714;2024-03-22T02:26:25;100824.97;;;17.64;45.79
75656;BME280;64252;51.094;13.714;2024-03-22T02:28:51;100818.19;;;17.84;45.17
75656;BME280;64252;51.094;13.714;2024-03-22T02:31:16;100812.78;;;17.90;44.81
75656;BME280;64252;51.094;13.714;2024-03-22T02:33:42;100821.53;;;17.76;45.37
75656;BME280;64252;51.094;13.714;2024-03-22T02:36:08;100810.72;;;17.90;44.95
75656;BME280;64252;51.094;13.714;2024-03-22T02:38:34;100815.56;;;17.97;44.58
75656;BME280;64252;51.094;13.714;2024-03-22T02:40:59;100814.47;;;17.87;44.87
75656;BME280;64252;51.094;13.714;2024-03-22T02:43:25;100813.53;;;17.64;45.18
75656;BME280;64252;51.094;13.714;2024-03-22T02:45:50;100817.69;;;17.55;45.05
75656;BME280;64252;51.094;13.714;2024-03-22T02:48:16;100810.97;;;17.73;44.98
75656;BME280;64252;51.094;13.714;2024-03-22T02:50:41;100807.06;;;18.20;43.99
75656;BME280;64252;51.094;13.714;2024-03-22T02:53:07;100797.84;;;17.79;45.04
75656;BME280;64252;51.094;13.714;2024-03-22T02:55:40;100802.06;;;17.67;45.37
75656;BME280;64252;51.094;13.714;2024-03-22T02:58:06;100789.72;;;18.04;44.42
75656;BME280;64252;51.094;13.714;2024-03-22T03:00:36;100792.84;;;18.13;44.05
75656;BME280;64252;51.094;13.714;2024-03-22T03:03:01;100790.50;;;17.78;44.84
75656;BME280;64252;51.094;13.714;2024-03-22T03:05:27;100795.81;;;18.06;44.53
75656;BME280;64252;51.094;13.714;2024-03-22T03:07:54;100796.56;;;18.10;44.34
75656;BME280;64252;51.094;13.714;2024-03-22T03:10:20;100795.34;;;18.11;44.49
75656;BME280;64252;51.094;13.714;2024-03-22T03:12:45;100792.53;;;18.08;44.43
75656;BME280;64252;51.094;13.714;2024-03-22T03:15:11;100789.25;;;18.09;44.32
75656;BME280;64252;51.094;13.714;2024-03-22T03:17:36;100785.47;;;17.89;44.95
75656;BME280;64252;51.094;13.714;2024-03-22T03:20:02;100783.03;;;17.87;44.83
75656;BME280;64252;51.094;13.714;2024-03-22T03:22:33;100782.81;;;18.02;44.44
75656;BME280;64252;51.094;13.714;2024-03-22T03:24:58;100776.31;;;18.01;44.35
75656;BME280;64252;51.094;13.714;2024-03-22T03:27:24;100776.31;;;18.01;44.28
75656;BME280;64252;51.094;13.714;2024-03-22T03:29:49;100779.28;;;17.64;45.20
75656;BME280;64252;51.094;13.714;2024-03-22T03:32:15;100781.97;;;17.40;45.95
75656;BME280;64252;51.094;13.714;2024-03-22T03:34:40;100766.31;;;17.55;45.82
75656;BME280;64252;51.094;13.714;2024-03-22T03:37:06;100759.56;;;17.73;45.44
75656;BME280;64252;51.094;13.714;2024-03-22T03:39:32;100761.19;;;17.74;45.06
75656;BME280;64252;51.094;13.714;2024-03-22T03:41:58;100761.38;;;17.60;45.20
75656;BME280;64252;51.094;13.714;2024-03-22T03:44:23;100754.81;;;17.63;45.25
75656;BME280;64252;51.094;13.714;2024-03-22T03:46:49;100760.44;;;17.96;44.84
75656;BME280;64252;51.094;13.714;2024-03-22T03:49:14;100757.66;;;17.93;44.76
75656;BME280;64252;51.094;13.714;2024-03-22T03:51:40;100755.66;;;17.60;45.19
75656;BME280;64252;51.094;13.714;2024-03-22T03:54:05;100756.09;;;17.88;44.99
75656;BME280;64252;51.094;13.714;2024-03-22T03:56:31;100756.59;;;17.49;45.58
75656;BME280;64252;51.094;13.714;2024-03-22T03:58:57;100755.19;;;17.65;45.59
75656;BME280;64252;51.094;13.714;2024-03-22T04:01:22;100755.44;;;17.43;45.52
75656;BME280;64252;51.094;13.714;2024-03-22T04:03:48;100749.34;;;17.41;45.84
75656;BME280;64252;51.094;13.714;2024-03-22T04:06:14;100754.94;;;17.48;45.46
75656;BME280;64252;51.094;13.714;2024-03-22T04:08:40;100757.06;;;17.44;45.76
75656;BME280;64252;51.094;13.714;2024-03-22T04:11:06;100748.34;;;17.59;45.52
75656;BME280;64252;51.094;13.714;2024-03-22T04:13:32;100744.19;;;17.63;45.40
75656;BME280;64252;51.094;13.714;2024-03-22T04:15:59;100744.94;;;17.33;46.19
75656;BME280;64252;51.094;13.714;2024-03-22T04:18:25;100731.00;;;17.73;45.34
75656;BME280;64252;51.094;13.714;2024-03-22T04:20:55;100737.94;;;17.72;45.05
75656;BME280;64252;51.094;13.714;2024-03-22T04:23:21;100734.72;;;17.70;45.28
75656;BME280;64252;51.094;13.714;2024-03-22T04:25:57;100729.28;;;17.79;45.00
75656;BME280;64252;51.094;13.714;2024-03-22T04:28:26;100734.34;;;17.68;45.22
75656;BME280;64252;51.094;13.714;2024-03-22T04:30:59;100723.81;;;17.58;45.49
75656;BME280;64252;51.094;13.714;2024-03-22T04:33:25;100727.13;;;17.56;45.38
75656;BME280;64252;51.094;13.714;2024-03-22T04:35:51;100723.78;;;17.65;45.02
75656;BME280;64252;51.094;13.714;2024-03-22T04:38:17;100721.13;;;17.77;44.83
75656;BME280;64252;51.094;13.714;2024-03-22T04:40:43;100715.22;;;17.61;45.08
75656;BME280;64252;51.094;13.714;2024-03-22T04:43:08;100715.09;;;17.41;45.71
75656;BME280;64252;51.094;13.714;2024-03-22T04:45:34;100710.19;;;17.42;45.56
75656;BME280;64252;51.094;13.714;2024-03-22T04:48:01;100705.19;;;17.49;45.46
75656;BME280;64252;51.094;13.714;2024-03-22T04:50:27;100700.75;;;16.81;47.00
75656;BME280;64252;51.094;13.714;2024-03-22T04:52:53;100701.72;;;17.01;46.94
75656;BME280;64252;51.094;13.714;2024-03-22T04:55:18;100700.41;;;17.39;45.70
75656;BME280;64252;51.094;13.714;2024-03-22T04:57:44;100696.75;;;17.39;45.86
75656;BME280;64252;51.094;13.714;2024-03-22T05:00:10;100687.56;;;17.24;46.26
75656;BME280;64252;51.094;13.714;2024-03-22T05:02:35;100698.72;;;17.45;45.54
75656;BME280;64252;51.094;13.714;2024-03-22T05:05:01;100693.75;;;17.49;45.43
75656;BME280;64252;51.094;13.714;2024-03-22T05:07:26;100699.41;;;17.53;45.35
75656;BME280;64252;51.094;13.714;2024-03-22T05:09:53;100701.06;;;17.20;46.23
75656;BME280;64252;51.094;13.714;2024-03-22T05:12:18;100698.69;;;17.15;46.28
75656;BME280;64252;51.094;13.714;2024-03-22T05:14:44;100701.03;;;17.54;45.47
75656;BME280;64252;51.094;13.714;2024-03-22T05:17:09;100697.38;;;17.53;45.47
75656;BME280;64252;51.094;13.714;2024-03-22T05:19:38;100689.00;;;17.39;45.68
75656;BME280;64252;51.094;13.714;2024-03-22T05:22:03;100684.03;;;17.43;45.87
75656;BME280;64252;51.094;13.714;2024-03-22T05:24:29;100684.88;;;17.74;45.26
75656;BME280;64252;51.094;13.714;2024-03-22T05:26:54;100679.09;;;17.47;46.22
75656;BME280;64252;51.094;13.714;2024-03-22T05:29:20;100675.44;;;17.17;46.48
75656;BME280;64252;51.094;13.714;2024-03-22T05:31:47;100678.91;;;17.62;45.41
75656;BME280;64252;51.094;13.714;2024-03-22T05:34:14;100677.44;;;18.04;44.63
75656;BME280;64252;51.094;13.714;2024-03-22T05:36:40;100665.47;;;17.89;44.84
75656;BME280;64252;51.094;13.714;2024-03-22T05:39:06;100670.19;;;17.99;44.42
75656;BME280;64252;51.094;13.714;2024-03-22T05:41:31;100659.44;;;18.07;44.59
75656;BME280;64252;51.094;13.714;2024-03-22T05:43:57;100656.91;;;18.12;44.13
75656;BME280;64252;51.094;13.714;2024-03-22T05:46:22;100661.06;;;18.31;43.55
75656;BME280;64252;51.094;13.714;2024-03-22T05:48:48;100655.66;;;18.13;43.87
75656;BME280;64252;51.094;13.714;2024-03-22T05:51:16;100654.41;;;18.37;43.30
75656;BME280;64252;51.094;13.714;2024-03-22T05:53:41;100655.66;;;18.36;43.40
75656;BME280;64252;51.094;13.714;2024-03-22T05:56:07;100664.84;;;18.01;43.88
75656;BME280;64252;51.094;13.714;2024-03-22T05:58:34;100663.88;;;18.58;43.02
75656;BME280;64252;51.094;13.714;2024-03-22T06:00:59;100662.41;;;18.69;42.67
75656;BME280;64252;51.094;13.714;2024-03-22T06:03:25;100645.66;;;18.91;42.17
75656;BME280;64252;51.094;13.714;2024-03-22T06:05:52;100653.13;;;18.85;42.22
75656;BME280;64252;51.094;13.714;2024-03-22T06:08:21;100647.41;;;18.85;42.31
75656;BME280;64252;51.094;13.714;2024-03-22T06:10:47;100649.44;;;18.65;42.83
75656;BME280;64252;51.094;13.714;2024-03-22T06:13:13;100644.09;;;19.06;42.59
75656;BME280;64252;51.094;13.714;2024-03-22T06:15:38;100641.59;;;19.08;41.59
75656;BME280;64252;51.094;13.714;2024-03-22T06:18:04;100649.31;;;19.11;41.44
75656;BME280;64252;51.094;13.714;2024-03-22T06:20:29;100649.47;;;19.40;40.97
75656;BME280;64252;51.094;13.714;2024-03-22T06:22:56;100645.03;;;19.19;41.09
75656;BME280;64252;51.094;13.714;2024-03-22T06:25:22;100643.31;;;19.78;40.40
75656;BME280;64252;51.094;13.714;2024-03-22T06:27:50;100630.63;;;19.43;40.31
75656;BME280;64252;51.094;13.714;2024-03-22T06:30:16;100643.59;;;20.15;39.13
75656;BME280;64252;51.094;13.714;2024-03-22T06:32:44;100629.56;;;20.05;39.52
75656;BME280;64252;51.094;13.714;2024-03-22T06:35:10;100628.13;;;20.74;38.27
75656;BME280;64252;51.094;13.714;2024-03-22T06:37:38;100628.53;;;21.18;37.38
75656;BME280;64252;51.094;13.714;2024-03-22T06:40:05;100628.22;;;20.99;37.07
75656;BME280;64252;51.094;13.714;2024-03-22T06:42:31;100611.47;;;21.11;37.12
75656;BME280;64252;51.094;13.714;2024-03-22T06:44:56;100609.63;;;20.46;38.01
75656;BME280;64252;51.094;13.714;2024-03-22T06:47:22;100613.00;;;20.86;37.22
75656;BME280;64252;51.094;13.714;2024-03-22T06:49:49;100602.94;;;20.94;37.19
75656;BME280;64252;51.094;13.714;2024-03-22T06:52:14;100597.78;;;20.73;37.37
75656;BME280;64252;51.094;13.714;2024-03-22T06:54:41;100609.16;;;20.77;36.99
75656;BME280;64252;51.094;13.714;2024-03-22T06:57:09;100596.84;;;21.59;35.65
75656;BME280;64252;51.094;13.714;2024-03-22T06:59:35;100603.66;;;21.11;36.84
75656;BME280;64252;51.094;13.714;2024-03-22T07:02:01;100592.00;;;21.31;35.84
75656;BME280;64252;51.094;13.714;2024-03-22T07:04:27;100599.13;;;21.39;35.98
75656;BME280;64252;51.094;13.714;2024-03-22T07:06:52;100595.13;;;21.74;35.24
75656;BME280;64252;51.094;13.714;2024-03-22T07:09:20;100590.72;;;21.95;35.05
75656;BME280;64252;51.094;13.714;2024-03-22T07:11:49;100594.88;;;21.18;35.03
75656;BME280;64252;51.094;13.714;2024-03-22T07:14:14;100593.50;;;21.48;34.99
75656;BME280;64252;51.094;13.714;2024-03-22T07:16:45;100587.84;;;22.08;34.79
75656;BME280;64252;51.094;13.714;2024-03-22T07:19:31;100599.09;;;21.89;35.28
75656;BME280;64252;51.094;13.714;2024-03-22T07:26:52;100578.56;;;21.28;34.49
75656;BME280;64252;51.094;13.714;2024-03-22T07:29:27;100577.38;;;21.76;34.09
75656;BME280;64252;51.094;13.714;2024-03-22T07:32:04;100572.19;;;22.43;33.40
75656;BME280;64252;51.094;13.714;2024-03-22T07:34:36;100579.06;;;22.24;33.51
75656;BME280;64252;51.094;13.714;2024-03-22T07:37:04;100591.41;;;22.46;32.77
75656;BME280;64252;51.094;13.714;2024-03-22T07:39:30;100584.66;;;22.40;33.86
75656;BME280;64252;51.094;13.714;2024-03-22T07:41:55;100585.16;;;22.13;34.00
75656;BME280;64252;51.094;13.714;2024-03-22T07:44:21;100569.28;;;22.99;32.53
75656;BME280;64252;51.094;13.714;2024-03-22T07:46:49;100569.75;;;22.98;32.62
75656;BME280;64252;51.094;13.714;2024-03-22T07:49:15;100566.69;;;22.92;33.08
75656;BME280;64252;51.094;13.714;2024-03-22T07:51:40;100559.66;;;22.37;33.22
75656;BME280;64252;51.094;13.714;2024-03-22T07:54:06;100560.69;;;22.09;34.24
75656;BME280;64252;51.094;13.714;2024-03-22T07:56:31;100551.81;;;22.50;33.80
75656;BME280;64252;51.094;13.714;2024-03-22T07:58:57;100558.09;;;22.36;33.80
75656;BME280;64252;51.094;13.714;2024-03-22T08:01:23;100547.97;;;23.18;32.67
75656;BME280;64252;51.094;13.714;2024-03-22T08:03:49;100560.63;;;23.21;32.54
75656;BME280;64252;51.094;13.714;2024-03-22T08:06:15;100558.41;;;23.56;32.60
75656;BME280;64252;51.094;13.714;2024-03-22T08:08:41;100549.34;;;23.76;31.93
75656;BME280;64252;51.094;13.714;2024-03-22T08:11:08;100550.25;;;22.58;33.29
75656;BME280;64252;51.094;13.714;2024-03-22T08:13:36;100545.25;;;22.50;33.83
75656;BME280;64252;51.094;13.714;2024-03-22T08:16:01;100541.50;;;22.84;33.51
75656;BME280;64252;51.094;13.714;2024-03-22T08:18:27;100533.56;;;23.18;32.87
75656;BME280;64252;51.094;13.714;2024-03-22T08:20:52;100535.16;;;23.19;32.91
75656;BME280;64252;51.094;13.714;2024-03-22T08:23:18;100544.84;;;23.66;32.37
75656;BME280;64252;51.094;13.714;2024-03-22T08:25:46;100540.47;;;24.10;32.03
75656;BME280;64252;51.094;13.714;2024-03-22T08:28:11;100531.78;;;24.01;32.61
75656;BME280;64252;51.094;13.714;2024-03-22T08:30:39;100534.25;;;23.63;32.41
75656;BME280;64252;51.094;13.714;2024-03-22T08:33:04;100525.66;;;23.90;32.39
75656;BME280;64252;51.094;13.714;2024-03-22T08:35:30;100526.72;;;22.72;33.19
75656;BME280;64252;51.094;13.714;2024-03-22T08:37:56;100522.69;;;22.92;33.01
75656;BME280;64252;51.094;13.714;2024-03-22T08:40:23;100518.47;;;23.45;32.46
75656;BME280;64252;51.094;13.714;2024-03-22T08:42:49;100512.03;;;23.41;32.70
75656;BME280;64252;51.094;13.714;2024-03-22T08:45:14;100516.47;;;23.64;32.40
75656;BME280;64252;51.094;13.714;2024-03-22T08:47:42;100517.06;;;23.19;32.96
75656;BME280;64252;51.094;13.714;2024-03-22T08:50:08;100516.59;;;23.51;32.29
75656;BME280;64252;51.094;13.714;2024-03-22T08:52:34;100515.22;;;23.34;32.57
75656;BME280;64252;51.094;13.714;2024-03-22T08:55:01;100510.16;;;24.78;30.90
75656;BME280;64252;51.094;13.714;2024-03-22T08:57:26;100506.50;;;24.23;30.95
75656;BME280;64252;51.094;13.714;2024-03-22T08:59:52;100503.88;;;23.98;31.34
75656;BME280;64252;51.094;13.714;2024-03-22T09:02:17;100509.84;;;23.14;32.11
75656;BME280;64252;51.094;13.714;2024-03-22T09:04:43;100498.97;;;22.22;33.05
75656;BME280;64252;51.094;13.714;2024-03-22T09:07:08;100496.75;;;23.53;32.05
75656;BME280;64252;51.094;13.714;2024-03-22T09:11:59;100495.38;;;23.85;31.38
75656;BME280;64252;51.094;13.714;2024-03-22T09:14:24;100484.28;;;25.02;30.43
75656;BME280;64252;51.094;13.714;2024-03-22T09:16:51;100489.66;;;23.45;31.27
75656;BME280;64252;51.094;13.714;2024-03-22T09:19:16;100480.94;;;23.36;31.20
75656;BME280;64252;51.094;13.714;2024-03-22T09:21:42;100480.09;;;22.87;32.17
75656;BME280;64252;51.094;13.714;2024-03-22T09:24:08;100479.25;;;22.55;32.15
75656;BME280;64252;51.094;13.714;2024-03-22T09:26:33;100480.56;;;22.63;31.81
75656;BME280;64252;51.094;13.714;2024-03-22T09:28:59;100492.13;;;23.25;31.17
75656;BME280;64252;51.094;13.714;2024-03-22T09:31:24;100482.75;;;23.92;30.13
75656;BME280;64252;51.094;13.714;2024-03-22T09:33:51;100479.97;;;24.88;29.59
75656;BME280;64252;51.094;13.714;2024-03-22T09:36:17;100463.53;;;24.16;30.68
75656;BME280;64252;51.094;13.714;2024-03-22T09:38:42;100474.56;;;24.09;30.16
75656;BME280;64252;51.094;13.714;2024-03-22T09:41:08;100459.38;;;24.17;29.96
75656;BME280;64252;51.094;13.714;2024-03-22T09:43:36;100459.78;;;23.79;30.58
75656;BME280;64252;51.094;13.714;2024-03-22T09:46:04;100457.41;;;24.14;30.51
75656;BME280;64252;51.094;13.714;2024-03-22T09:48:31;100452.28;;;23.73;30.97
75656;BME280;64252;51.094;13.714;2024-03-22T09:50:58;100458.28;;;23.47;31.16
75656;BME280;64252;51.094;13.714;2024-03-22T09:53:25;100450.03;;;24.40;30.37
75656;BME280;64252;51.094;13.714;2024-03-22T09:55:52;100444.13;;;25.70;29.45
75656;BME280;64252;51.094;13.714;2024-03-22T09:58:23;100437.03;;;25.71;29.17
75656;BME280;64252;51.094;13.714;2024-03-22T10:00:48;100431.78;;;26.32;29.04
75656;BME280;64252;51.094;13.714;2024-03-22T10:03:14;100437.25;;;26.30;28.36
75656;BME280;64252;51.094;13.714;2024-03-22T10:05:41;100427.16;;;26.25;28.62
75656;BME280;64252;51.094;13.714;2024-03-22T10:08:08;100441.66;;;26.40;28.17
75656;BME280;64252;51.094;13.714;2024-03-22T10:10:34;100431.97;;;26.43;28.45
75656;BME280;64252;51.094;13.714;2024-03-22T10:13:01;100429.09;;;25.81;28.96
75656;BME280;64252;51.094;13.714;2024-03-22T10:15:27;100420.50;;;25.39;29.64
75656;BME280;64252;51.094;13.714;2024-03-22T10:17:53;100419.06;;;25.67;29.29
75656;BME280;64252;51.094;13.714;2024-03-22T10:20:21;100431.50;;;25.82;29.61
75656;BME280;64252;51.094;13.714;2024-03-22T10:22:57;100428.81;;;25.78;28.73
75656;BME280;64252;51.094;13.714;2024-03-22T10:25:24;100418.97;;;25.52;29.45
75656;BME280;64252;51.094;13.714;2024-03-22T10:27:50;100420.09;;;26.41;28.33
75656;BME280;64252;51.094;13.714;2024-03-22T10:30:16;100409.38;;;28.16;26.49
75656;BME280;64252;51.094;13.714;2024-03-22T10:32:43;100413.59;;;28.15;26.91
75656;BME280;64252;51.094;13.714;2024-03-22T10:35:13;100411.31;;;26.50;28.25
75656;BME280;64252;51.094;13.714;2024-03-22T10:37:40;100401.88;;;26.84;28.29
75656;BME280;64252;51.094;13.714;2024-03-22T10:40:07;100400.22;;;25.95;29.00
75656;BME280;64252;51.094;13.714;2024-03-22T10:42:42;100390.06;;;25.52;29.57
75656;BME280;64252;51.094;13.714;2024-03-22T10:45:09;100396.41;;;25.42;29.20
75656;BME280;64252;51.094;13.714;2024-03-22T10:47:36;100387.34;;;26.35;28.80
75656;BME280;64252;51.094;13.714;2024-03-22T10:52:34;100373.13;;;26.95;27.75
75656;BME280;64252;51.094;13.714;2024-03-22T10:55:04;100374.03;;;26.87;27.91
75656;BME280;64252;51.094;13.714;2024-03-22T10:57:32;100371.47;;;26.45;28.67
75656;BME280;64252;51.094;13.714;2024-03-22T11:00:08;100370.44;;;26.62;28.51
75656;BME280;64252;51.094;13.714;2024-03-22T11:02:37;100358.28;;;26.44;28.68
75656;BME280;64252;51.094;13.714;2024-03-22T11:05:06;100357.94;;;26.12;29.77
75656;BME280;64252;51.094;13.714;2024-03-22T11:07:33;100356.66;;;25.27;30.16
75656;BME280;64252;51.094;13.714;2024-03-22T11:10:01;100353.94;;;26.10;30.10
75656;BME280;64252;51.094;13.714;2024-03-22T11:12:31;100351.03;;;26.10;29.21
75656;BME280;64252;51.094;13.714;2024-03-22T11:14:58;100347.03;;;26.81;28.89
75656;BME280;64252;51.094;13.714;2024-03-22T11:17:24;100327.00;;;27.12;27.87
75656;BME280;64252;51.094;13.714;2024-03-22T11:19:53;100324.78;;;26.72;28.14
75656;BME280;64252;51.094;13.714;2024-03-22T11:22:20;100325.31;;;27.05;27.88
75656;BME280;64252;51.094;13.714;2024-03-22T11:24:45;100323.03;;;26.45;28.93
75656;BME280;64252;51.094;13.714;2024-03-22T11:27:11;100319.47;;;28.27;27.26
75656;BME280;64252;51.094;13.714;2024-03-22T11:29:38;100311.31;;;26.69;28.61
75656;BME280;64252;51.094;13.714;2024-03-22T11:32:06;100314.78;;;26.00;29.53
75656;BME280;64252;51.094;13.714;2024-03-22T11:34:37;100307.63;;;26.54;28.94
75656;BME280;64252;51.094;13.714;2024-03-22T11:37:05;100295.84;;;27.27;27.82
75656;BME280;64252;51.094;13.714;2024-03-22T11:39:33;100303.66;;;27.41;27.56
75656;BME280;64252;51.094;13.714;2024-03-22T11:42:02;100292.56;;;26.85;28.33
75656;BME280;64252;51.094;13.714;2024-03-22T11:44:28;100293.59;;;26.82;28.29
75656;BME280;64252;51.094;13.714;2024-03-22T11:46:54;100282.38;;;26.54;28.74
75656;BME280;64252;51.094;13.714;2024-03-22T11:49:20;100284.56;;;26.01;29.33
75656;BME280;64252;51.094;13.714;2024-03-22T11:51:45;100277.41;;;26.75;27.88
75656;BME280;64252;51.094;13.714;2024-03-22T11:54:11;100273.72;;;27.10;29.12
75656;BME280;64252;51.094;13.714;2024-03-22T11:56:36;100266.00;;;25.93;29.43
75656;BME280;64252;51.094;13.714;2024-03-22T11:59:02;100269.41;;;25.53;30.37
75656;BME280;64252;51.094;13.714;2024-03-22T12:01:33;100265.19;;;25.39;29.58
75656;BME280;64252;51.094;13.714;2024-03-22T12:03:59;100268.78;;;25.49;29.76
75656;BME280;64252;51.094;13.714;2024-03-22T12:06:25;100262.69;;;26.58;29.33
75656;BME280;64252;51.094;13.714;2024-03-22T12:08:51;100259.00;;;25.99;29.37
75656;BME280;64252;51.094;13.714;2024-03-22T12:11:18;100259.31;;;24.77;30.93
75656;BME280;64252;51.094;13.714;2024-03-22T12:13:44;100247.53;;;25.75;29.89
75656;BME280;64252;51.094;13.714;2024-03-22T12:16:10;100250.50;;;26.54;29.18
75656;BME280;64252;51.094;13.714;2024-03-22T12:18:35;100246.34;;;26.76;28.92
75656;BME280;64252;51.094;13.714;2024-03-22T12:21:02;100244.16;;;26.36;28.91
75656;BME280;64252;51.094;13.714;2024-03-22T12:23:28;100245.00;;;27.32;28.32
75656;BME280;64252;51.094;13.714;2024-03-22T12:25:53;100248.00;;;26.97;28.35
75656;BME280;64252;51.094;13.714;2024-03-22T12:28:21;100242.75;;;26.46;29.26
75656;BME280;64252;51.094;13.714;2024-03-22T12:30:47;100239.16;;;25.92;29.16
75656;BME280;64252;51.094;13.714;2024-03-22T12:33:12;100235.56;;;26.12;29.18
75656;BME280;64252;51.094;13.714;2024-03-22T12:35:41;100228.78;;;26.00;28.87
75656;BME280;64252;51.094;13.714;2024-03-22T12:38:07;100228.72;;;26.59;28.98
75656;BME280;64252;51.094;13.714;2024-03-22T12:40:39;100234.66;;;27.05;28.95
75656;BME280;64252;51.094;13.714;2024-03-22T12:43:04;100221.53;;;27.30;28.68
75656;BME280;64252;51.094;13.714;2024-03-22T12:45:31;100226.97;;;26.67;28.08